createdAt,value
2018-06-19T00:01:40.478Z,3.43
2018-06-19T00:04:09.546Z,2.87
2018-06-19T00:06:38.645Z,2.70
2018-06-19T00:09:08.792Z,3.37
2018-06-19T00:11:37.933Z,3.00
2018-06-19T00:14:07.037Z,4.07
2018-06-19T00:16:36.122Z,2.97
2018-06-19T00:19:06.269Z,3.90
2018-06-19T00:21:48.886Z,3.90
2018-06-19T00:24:17.969Z,3.50
2018-06-19T00:26:47.045Z,3.13
2018-06-19T00:29:16.245Z,3.37
2018-06-19T00:31:45.316Z,4.00
2018-06-19T00:34:14.410Z,4.10
2018-06-19T00:36:43.538Z,3.63
2018-06-19T00:39:13.285Z,3.20
2018-06-19T00:41:42.693Z,3.63
2018-06-19T00:44:12.177Z,3.87
2018-06-19T00:46:45.905Z,3.90
2018-06-19T00:49:15.034Z,3.93
2018-06-19T00:51:44.133Z,3.77
2018-06-19T00:54:13.205Z,3.90
2018-06-19T00:56:53.149Z,4.00
2018-06-19T00:59:22.222Z,3.90
2018-06-19T01:01:51.801Z,3.70
2018-06-19T01:04:20.887Z,4.50
2018-06-19T01:06:50.018Z,3.87
2018-06-19T01:09:19.146Z,3.80
2018-06-19T01:11:48.266Z,4.33
2018-06-19T01:14:17.326Z,4.10
2018-06-19T01:16:46.429Z,4.20
2018-06-19T01:19:15.526Z,3.20
2018-06-19T01:21:44.642Z,4.30
2018-06-19T01:24:13.713Z,4.13
2018-06-19T01:26:42.793Z,4.37
2018-06-19T01:29:11.865Z,3.67
2018-06-19T01:31:40.969Z,4.13
2018-06-19T01:34:10.081Z,3.90
2018-06-19T01:36:39.161Z,3.73
2018-06-19T01:39:10.169Z,3.50
2018-06-19T01:41:39.298Z,4.30
2018-06-19T01:44:08.566Z,3.90
2018-06-19T01:46:37.687Z,4.40
2018-06-19T01:49:06.769Z,4.40
2018-06-19T01:51:36.103Z,4.13
2018-06-19T01:54:05.229Z,3.93
2018-06-19T01:56:34.298Z,3.90
2018-06-19T01:59:03.389Z,4.20
2018-06-19T02:01:32.477Z,4.90
2018-06-19T02:04:01.570Z,4.13
2018-06-19T02:06:30.662Z,4.17
2018-06-19T02:08:59.773Z,3.90
2018-06-19T02:11:29.449Z,5.23
2018-06-19T02:13:58.542Z,4.40
2018-06-19T02:16:27.658Z,5.03
2018-06-19T02:18:56.738Z,4.43
2018-06-19T02:21:25.804Z,4.70
2018-06-19T02:23:54.917Z,5.10
2018-06-19T02:26:23.991Z,5.00
2018-06-19T02:28:53.067Z,5.17
2018-06-19T02:31:22.158Z,5.27
2018-06-19T02:33:51.234Z,4.30
2018-06-19T02:36:20.333Z,5.13
2018-06-19T02:38:49.414Z,6.10
2018-06-19T02:41:18.495Z,5.03
2018-06-19T02:43:47.576Z,4.50
2018-06-19T02:46:16.723Z,4.60
2018-06-19T02:48:45.833Z,4.87
2018-06-19T02:51:14.901Z,4.30
2018-06-19T02:53:44.070Z,4.43
2018-06-19T02:56:13.194Z,5.00
2018-06-19T02:58:42.426Z,4.97
2018-06-19T03:01:11.510Z,5.47
2018-06-19T03:03:40.594Z,5.73
2018-06-19T03:06:09.691Z,4.40
2018-06-19T03:08:38.777Z,5.30
2018-06-19T03:11:07.850Z,4.90
2018-06-19T03:13:36.930Z,4.80
2018-06-19T03:16:06.173Z,5.07
2018-06-19T03:18:35.289Z,5.00
2018-06-19T03:21:04.373Z,4.90
2018-06-19T03:23:33.441Z,5.13
2018-06-19T03:26:02.527Z,5.70
2018-06-19T03:28:31.706Z,5.40
2018-06-19T03:31:00.798Z,5.60
2018-06-19T03:33:29.890Z,5.40
2018-06-19T03:35:58.982Z,4.37
2018-06-19T03:38:28.061Z,5.30
2018-06-19T03:40:57.150Z,4.50
2018-06-19T03:43:26.262Z,5.30
2018-06-19T03:45:55.381Z,4.70
2018-06-19T03:48:24.474Z,4.60
2018-06-19T03:50:53.574Z,4.87
2018-06-19T03:53:22.710Z,6.00
2018-06-19T03:55:51.786Z,5.03
2018-06-19T03:58:20.906Z,5.30
2018-06-19T04:00:50.008Z,5.20
2018-06-19T04:03:19.093Z,4.60
2018-06-19T04:05:48.210Z,5.13
2018-06-19T04:08:17.359Z,5.70
2018-06-19T04:10:46.453Z,5.27
2018-06-19T04:13:15.669Z,5.10
2018-06-19T04:15:44.786Z,5.63
2018-06-19T04:18:13.873Z,5.40
2018-06-19T04:20:42.965Z,5.03
2018-06-19T04:23:12.054Z,4.80
2018-06-19T04:25:41.145Z,5.27
2018-06-19T04:28:10.217Z,4.30
2018-06-19T04:30:39.332Z,4.87
2018-06-19T04:33:08.417Z,4.03
2018-06-19T04:35:37.517Z,4.20
2018-06-19T04:38:06.601Z,4.17
2018-06-19T04:40:35.702Z,5.30
2018-06-19T04:43:05.161Z,4.73
2018-06-19T04:45:34.734Z,4.97
2018-06-19T04:48:04.447Z,5.50
2018-06-19T04:50:33.545Z,4.60
2018-06-19T04:53:02.654Z,4.70
2018-06-19T04:55:31.723Z,5.70
2018-06-19T04:58:00.838Z,5.23
2018-06-19T05:00:29.933Z,5.50
2018-06-19T05:02:59.030Z,5.17
2018-06-19T05:05:28.093Z,5.70
2018-06-19T05:07:57.191Z,5.27
2018-06-19T05:10:26.266Z,5.23
2018-06-19T05:12:55.477Z,4.57
2018-06-19T05:15:24.518Z,5.00
2018-06-19T05:17:53.650Z,5.80
2018-06-19T05:20:22.741Z,5.20
2018-06-19T05:22:52.030Z,5.10
2018-06-19T05:25:21.721Z,5.60
2018-06-19T05:27:51.186Z,5.50
2018-06-19T05:30:21.318Z,4.77
2018-06-19T05:32:50.482Z,5.40
2018-06-19T05:35:19.603Z,5.40
2018-06-19T05:37:48.687Z,5.97
2018-06-19T05:40:17.766Z,5.60
2018-06-19T05:42:46.852Z,6.60
2018-06-19T05:45:15.964Z,5.90
2018-06-19T05:47:45.051Z,5.73
2018-06-19T05:50:14.446Z,6.13
2018-06-19T05:52:43.556Z,7.00
2018-06-19T05:55:12.637Z,6.93
2018-06-19T05:57:41.735Z,7.10
2018-06-19T06:00:10.812Z,6.47
2018-06-19T06:02:39.974Z,7.40
2018-06-19T06:05:09.042Z,6.90
2018-06-19T06:07:38.146Z,5.97
2018-06-19T06:10:07.285Z,6.80
2018-06-19T06:12:37.185Z,6.83
2018-06-19T06:15:06.279Z,6.40
2018-06-19T06:17:35.347Z,7.40
2018-06-19T06:20:05.009Z,7.17
2018-06-19T06:22:34.097Z,7.50
2018-06-19T06:25:03.205Z,7.70
2018-06-19T06:27:32.309Z,7.67
2018-06-19T06:30:01.379Z,8.30
2018-06-19T06:32:30.516Z,8.53
2018-06-19T06:34:59.606Z,8.73
2018-06-19T06:37:28.702Z,10.10
2018-06-19T06:39:57.787Z,9.20
2018-06-19T06:42:26.993Z,9.50
2018-06-19T06:44:56.066Z,8.40
2018-06-19T06:47:25.141Z,8.20
2018-06-19T06:49:54.232Z,7.40
2018-06-19T06:52:23.301Z,8.47
2018-06-19T06:54:52.416Z,7.87
2018-06-19T06:57:21.519Z,8.17
2018-06-19T06:59:50.614Z,8.43
2018-06-19T07:02:19.725Z,8.90
2018-06-19T07:04:48.813Z,8.50
2018-06-19T07:07:17.893Z,8.30
2018-06-19T07:09:47.185Z,8.87
2018-06-19T07:12:16.261Z,8.67
2018-06-19T07:14:45.372Z,8.43
2018-06-19T07:17:14.466Z,8.43
2018-06-19T07:19:43.607Z,8.83
2018-06-19T07:22:12.694Z,8.17
2018-06-19T07:24:41.762Z,7.17
2018-06-19T07:27:10.870Z,6.80
2018-06-19T07:29:39.957Z,7.47
2018-06-19T07:32:09.052Z,9.13
2018-06-19T07:34:38.138Z,8.03
2018-06-19T07:37:07.322Z,8.83
2018-06-19T07:39:36.446Z,7.90
2018-06-19T07:42:05.664Z,7.70
2018-06-19T07:44:34.741Z,9.70
2018-06-19T07:47:03.812Z,8.40
2018-06-19T07:49:32.996Z,7.73
2018-06-19T07:52:02.042Z,7.27
2018-06-19T07:54:31.149Z,6.77
2018-06-19T07:57:00.224Z,6.60
2018-06-19T07:59:29.373Z,8.00
2018-06-19T08:01:58.550Z,8.77
2018-06-19T08:04:27.732Z,9.00
2018-06-19T08:06:56.885Z,7.87
2018-06-19T08:09:26.049Z,8.03
2018-06-19T08:11:55.203Z,7.20
2018-06-19T08:14:25.250Z,8.40
2018-06-19T08:16:54.392Z,7.70
2018-06-19T08:19:23.601Z,7.27
2018-06-19T08:21:52.732Z,6.90
2018-06-19T08:24:21.904Z,6.23
2018-06-19T08:26:51.110Z,6.20
2018-06-19T08:29:20.234Z,7.47
2018-06-19T08:31:49.340Z,7.17
2018-06-19T08:34:18.521Z,7.00
2018-06-19T08:36:47.651Z,7.43
2018-06-19T08:39:16.855Z,6.70
2018-06-19T08:41:46.007Z,6.33
2018-06-19T08:44:15.240Z,6.10
2018-06-19T08:46:44.445Z,6.70
2018-06-19T08:49:13.766Z,5.70
2018-06-19T08:51:42.917Z,6.03
2018-06-19T08:54:12.082Z,6.93
2018-06-19T08:56:41.213Z,7.67
2018-06-19T08:59:10.338Z,6.30
2018-06-19T09:01:39.491Z,5.40
2018-06-19T09:04:08.727Z,5.97
2018-06-19T09:06:37.914Z,6.77
2018-06-19T09:09:10.010Z,5.90
2018-06-19T09:11:39.512Z,5.43
2018-06-19T09:14:08.609Z,6.13
2018-06-19T09:16:37.845Z,5.00
2018-06-19T09:19:06.842Z,5.83
2018-06-19T09:21:35.997Z,5.00
2018-06-19T09:24:05.501Z,4.70
2018-06-19T09:26:34.685Z,6.40
2018-06-19T09:29:03.842Z,4.97
2018-06-19T09:31:33.052Z,5.37
2018-06-19T09:34:02.225Z,4.23
2018-06-19T09:36:31.361Z,5.70
2018-06-19T09:39:00.493Z,4.67
2018-06-19T09:41:29.610Z,4.67
2018-06-19T09:43:58.766Z,5.10
2018-06-19T09:46:27.902Z,4.23
2018-06-19T09:48:57.314Z,4.57
2018-06-19T09:51:26.526Z,3.90
2018-06-19T09:53:55.759Z,4.13
2018-06-19T09:56:24.927Z,4.27
2018-06-19T09:58:54.001Z,4.30
2018-06-19T10:01:23.190Z,5.10
2018-06-19T10:03:52.397Z,4.37
2018-06-19T10:06:21.534Z,3.90
2018-06-19T10:08:50.694Z,4.77
2018-06-19T10:11:19.871Z,3.90
2018-06-19T10:13:49.017Z,3.97
2018-06-19T10:16:18.171Z,3.60
2018-06-19T10:18:47.367Z,3.43
2018-06-19T10:21:16.551Z,3.40
2018-06-19T10:23:45.731Z,2.90
2018-06-19T10:26:15.142Z,4.00
2018-06-19T10:28:44.257Z,3.00
2018-06-19T10:31:13.425Z,2.73
2018-06-19T10:33:42.577Z,3.00
2018-06-19T10:36:11.701Z,3.33
2018-06-19T10:38:40.836Z,3.30
2018-06-19T10:41:10.008Z,3.10
2018-06-19T10:43:39.215Z,3.73
2018-06-19T10:46:08.342Z,3.90
2018-06-19T10:48:37.489Z,2.60
2018-06-19T10:51:06.727Z,3.40
2018-06-19T10:53:35.865Z,2.90
2018-06-19T10:56:04.982Z,3.00
2018-06-19T10:58:34.067Z,2.67
2018-06-19T11:01:03.219Z,3.17
2018-06-19T11:03:32.409Z,3.07
2018-06-19T11:06:01.539Z,3.47
2018-06-19T11:08:30.643Z,3.40
2018-06-19T11:10:59.806Z,2.60
2018-06-19T11:13:28.958Z,2.70
2018-06-19T11:15:58.135Z,3.30
2018-06-19T11:18:27.339Z,2.97
2018-06-19T11:20:56.275Z,2.83
2018-06-19T11:23:25.287Z,3.13
2018-06-19T11:25:54.183Z,3.27
2018-06-19T11:28:23.136Z,3.23
2018-06-19T11:30:52.083Z,4.50
2018-06-19T11:33:20.943Z,2.87
2018-06-19T11:35:49.875Z,3.33
2018-06-19T11:38:18.833Z,4.17
2018-06-19T11:40:47.944Z,2.60
2018-06-19T11:43:16.898Z,2.83
2018-06-19T11:45:45.757Z,3.17
2018-06-19T11:48:14.719Z,3.27
2018-06-19T11:50:43.685Z,2.53
2018-06-19T11:53:12.622Z,2.90
2018-06-19T11:55:41.529Z,2.50
2018-06-19T11:58:10.600Z,2.47
2018-06-19T12:00:39.566Z,3.03
2018-06-19T12:03:08.496Z,2.47
2018-06-19T12:05:38.658Z,2.00
2018-06-19T12:08:07.538Z,2.50
2018-06-19T12:10:36.477Z,2.67
2018-06-19T12:13:05.346Z,2.70
2018-06-19T12:15:34.249Z,2.37
2018-06-19T12:18:03.155Z,2.20
2018-06-19T12:20:32.117Z,2.33
2018-06-19T12:23:01.032Z,2.90
2018-06-19T12:25:29.966Z,2.50
2018-06-19T12:27:58.952Z,2.50
2018-06-19T12:30:27.878Z,3.23
2018-06-19T12:32:56.791Z,2.50
2018-06-19T12:35:25.690Z,2.90
2018-06-19T12:37:54.625Z,2.60
2018-06-19T12:40:23.488Z,2.70
2018-06-19T12:42:52.482Z,2.67
2018-06-19T12:45:21.393Z,4.13
2018-06-19T12:47:50.263Z,2.97
2018-06-19T12:50:32.877Z,3.23
2018-06-19T12:53:14.181Z,3.13
2018-06-19T12:55:54.790Z,3.07
2018-06-19T12:58:24.436Z,3.07
2018-06-19T13:00:53.300Z,2.67
2018-06-19T13:03:33.688Z,3.03
2018-06-19T13:06:14.060Z,3.00
2018-06-19T13:08:42.953Z,3.17
2018-06-19T13:11:11.872Z,2.93
2018-06-19T13:13:52.112Z,2.83
2018-06-19T13:16:32.430Z,2.60
2018-06-19T13:19:12.741Z,2.37
2018-06-19T13:21:41.685Z,2.57
2018-06-19T13:24:10.593Z,2.57
2018-06-19T13:26:39.521Z,3.67
2018-06-19T13:29:46.562Z,2.80
2018-06-19T13:32:15.465Z,3.07
2018-06-19T13:34:44.634Z,2.93
2018-06-19T13:37:13.577Z,2.83
2018-06-19T13:39:42.990Z,2.70
2018-06-19T13:42:34.940Z,3.87
2018-06-19T13:45:06.164Z,3.07
2018-06-19T13:47:35.072Z,2.97
2018-06-19T13:50:04.092Z,3.13
2018-06-19T13:52:33.065Z,3.33
2018-06-19T13:57:20.621Z,3.23
2018-06-19T13:59:49.570Z,4.00
2018-06-19T14:02:18.869Z,3.23
2018-06-19T14:04:47.985Z,3.67
2018-06-19T14:07:17.109Z,3.50
2018-06-19T14:09:57.365Z,3.70
2018-06-19T14:12:40.032Z,3.33
2018-06-19T14:15:08.983Z,3.50
2018-06-19T14:17:37.858Z,3.97
2018-06-19T14:20:06.737Z,3.37
2018-06-19T14:22:35.682Z,3.80
2018-06-19T14:25:04.566Z,4.30
2018-06-19T14:27:33.480Z,3.73
2018-06-19T14:30:02.375Z,3.90
2018-06-19T14:32:31.308Z,4.20
2018-06-19T14:35:00.233Z,3.53
2018-06-19T14:37:29.193Z,3.80
2018-06-19T14:39:58.146Z,2.70
2018-06-19T14:42:27.093Z,3.20
2018-06-19T14:44:56.031Z,4.50
2018-06-19T14:47:24.978Z,4.33
2018-06-19T14:49:53.923Z,3.63
2018-06-19T14:52:22.887Z,3.97
2018-06-19T14:54:51.854Z,3.40
2018-06-19T14:57:20.747Z,4.00
2018-06-19T14:59:49.681Z,3.70
2018-06-19T15:02:18.589Z,3.93
2018-06-19T15:04:47.658Z,2.77
2018-06-19T15:07:16.591Z,3.20
2018-06-19T15:09:45.613Z,3.00
2018-06-19T15:12:14.511Z,3.10
2018-06-19T15:14:43.441Z,3.00
2018-06-19T15:17:12.450Z,3.17
2018-06-19T15:19:41.495Z,3.57
2018-06-19T15:22:10.389Z,3.10
2018-06-19T15:24:39.263Z,2.87
2018-06-19T15:27:08.119Z,3.43
2018-06-19T15:29:37.064Z,4.37
2018-06-19T15:32:06.068Z,3.93
2018-06-19T15:34:35.011Z,3.67
2018-06-19T15:37:03.947Z,4.07
2018-06-19T15:39:32.841Z,3.33
2018-06-19T15:42:01.778Z,2.97
2018-06-19T15:44:30.639Z,3.53
2018-06-19T15:46:59.572Z,3.87
2018-06-19T15:49:28.485Z,3.83
2018-06-19T15:51:57.438Z,4.20
2018-06-19T15:54:26.425Z,4.33
2018-06-19T15:56:55.400Z,3.80
2018-06-19T15:59:24.370Z,4.03
2018-06-19T16:01:53.321Z,4.10
2018-06-19T16:04:22.245Z,4.33
2018-06-19T16:06:51.133Z,4.73
2018-06-19T16:09:20.011Z,4.40
2018-06-19T16:11:49.000Z,4.90
2018-06-19T16:14:17.935Z,3.80
2018-06-19T16:16:46.946Z,3.70
2018-06-19T16:19:15.848Z,4.00
2018-06-19T16:21:44.801Z,4.00
2018-06-19T16:24:13.728Z,4.27
2018-06-19T16:26:42.639Z,4.03
2018-06-19T16:29:11.558Z,4.20
2018-06-19T16:31:40.538Z,3.80
2018-06-19T16:34:09.504Z,3.70
2018-06-19T16:36:38.409Z,3.67
2018-06-19T16:39:08.794Z,3.70
2018-06-19T16:41:37.815Z,3.10
2018-06-19T16:44:07.129Z,3.50
2018-06-19T16:46:36.561Z,3.93
2018-06-19T16:49:05.505Z,3.60
2018-06-19T16:51:34.439Z,3.70
2018-06-19T16:54:03.411Z,2.80
2018-06-19T16:56:32.291Z,2.70
2018-06-19T16:59:01.209Z,3.47
2018-06-19T17:01:30.213Z,2.90
2018-06-19T17:03:59.147Z,3.10
2018-06-19T17:06:28.077Z,2.40
2018-06-19T17:08:56.949Z,2.53
2018-06-19T17:11:25.878Z,2.87
2018-06-19T17:13:54.804Z,2.47
2018-06-19T17:16:23.762Z,2.47
2018-06-19T17:18:52.603Z,3.27
2018-06-19T17:21:21.565Z,2.53
2018-06-19T17:23:50.352Z,2.53
2018-06-19T17:26:19.265Z,2.60
2018-06-19T17:28:48.188Z,2.80
2018-06-19T17:31:17.113Z,3.10
2018-06-19T17:33:46.009Z,2.50
2018-06-19T17:36:14.959Z,2.23
2018-06-19T17:38:43.881Z,2.80
2018-06-19T17:41:12.752Z,2.80
2018-06-19T17:43:41.629Z,2.30
2018-06-19T17:46:10.512Z,2.40
2018-06-19T17:48:39.425Z,2.60
2018-06-19T17:51:08.348Z,2.70
2018-06-19T17:53:37.373Z,2.10
2018-06-19T17:56:06.322Z,2.10
2018-06-19T17:58:35.245Z,2.60
2018-06-19T18:01:04.161Z,2.10
2018-06-19T18:03:33.085Z,1.90
2018-06-19T18:06:02.067Z,2.60
2018-06-19T18:08:30.960Z,2.67
2018-06-19T18:10:59.888Z,2.60
2018-06-19T18:13:28.868Z,2.63
2018-06-19T18:15:57.752Z,2.40
2018-06-19T18:18:26.660Z,2.80
2018-06-19T18:20:55.585Z,4.43
2018-06-19T18:23:24.492Z,3.43
2018-06-19T18:25:53.385Z,3.97
2018-06-19T18:28:22.318Z,2.93
2018-06-19T18:30:51.199Z,3.60
2018-06-19T18:33:20.155Z,3.47
2018-06-19T18:35:49.076Z,2.90
2018-06-19T18:38:17.992Z,3.47
2018-06-19T18:40:46.932Z,3.07
2018-06-19T18:43:15.852Z,3.67
2018-06-19T18:45:44.798Z,3.20
2018-06-19T18:48:13.649Z,4.63
2018-06-19T18:50:42.606Z,3.43
2018-06-19T18:53:11.720Z,4.30
2018-06-19T18:55:40.693Z,3.30
2018-06-19T18:58:09.594Z,4.20
2018-06-19T19:00:38.556Z,3.50
2018-06-19T19:03:07.480Z,3.70
2018-06-19T19:05:36.435Z,4.00
2018-06-19T19:08:05.368Z,3.80
2018-06-19T19:10:39.761Z,3.70
2018-06-19T19:13:08.742Z,3.40
2018-06-19T19:15:43.172Z,3.83
2018-06-19T19:18:17.434Z,4.10
2018-06-19T19:20:46.456Z,3.50
2018-06-19T19:23:15.402Z,4.07
2018-06-19T19:25:44.370Z,3.60
2018-06-19T19:28:18.625Z,4.17
2018-06-19T19:30:47.537Z,3.93
2018-06-19T19:33:16.442Z,3.40
2018-06-19T19:35:45.348Z,3.13
2018-06-19T19:38:19.787Z,3.17
2018-06-19T19:40:48.832Z,3.60
2018-06-19T19:43:17.934Z,3.97
2018-06-19T19:45:46.962Z,3.80
2018-06-19T19:48:21.430Z,3.40
2018-06-19T19:50:50.377Z,3.10
2018-06-19T19:53:19.391Z,3.90
2018-06-19T19:55:53.850Z,3.57
2018-06-19T19:58:28.090Z,4.10
2018-06-19T20:00:56.972Z,3.53
2018-06-19T20:03:25.938Z,3.50
2018-06-19T20:05:54.919Z,3.43
2018-06-19T20:08:25.128Z,4.43
2018-06-19T20:10:54.063Z,4.30
2018-06-19T20:13:22.961Z,3.70
2018-06-19T20:15:51.845Z,4.20
2018-06-19T20:18:20.757Z,3.57
2018-06-19T20:20:49.665Z,4.00
2018-06-19T20:23:18.580Z,4.20
2018-06-19T20:25:47.534Z,4.40
2018-06-19T20:28:16.496Z,3.90
2018-06-19T20:30:45.345Z,4.50
2018-06-19T20:33:14.341Z,4.67
2018-06-19T20:35:43.233Z,4.03
2018-06-19T20:38:12.117Z,4.87
2018-06-19T20:40:41.061Z,12.30
2018-06-19T20:43:09.930Z,7.63
2018-06-19T20:45:38.906Z,6.27
2018-06-19T20:48:07.807Z,4.20
2018-06-19T20:50:36.760Z,4.10
2018-06-19T20:53:05.625Z,4.83
2018-06-19T20:55:34.594Z,4.23
2018-06-19T20:58:03.550Z,5.27
2018-06-19T21:00:32.467Z,4.47
2018-06-19T21:03:01.426Z,4.70
2018-06-19T21:05:30.361Z,4.00
2018-06-19T21:07:59.267Z,4.10
2018-06-19T21:10:28.180Z,3.83
2018-06-19T21:12:57.166Z,4.27
2018-06-19T21:15:26.069Z,4.20
2018-06-19T21:17:55.481Z,4.10
2018-06-19T21:20:24.360Z,4.50
2018-06-19T21:22:53.303Z,4.97
2018-06-19T21:25:22.246Z,4.47
2018-06-19T21:27:51.177Z,5.00
2018-06-19T21:30:20.158Z,4.53
2018-06-19T21:32:49.026Z,4.77
2018-06-19T21:35:17.900Z,4.53
2018-06-19T21:37:47.286Z,4.87
2018-06-19T21:40:16.148Z,4.97
2018-06-19T21:42:45.052Z,4.73
2018-06-19T21:45:14.007Z,4.87
2018-06-19T21:47:42.886Z,4.97
2018-06-19T21:50:12.566Z,5.07
2018-06-19T21:52:41.662Z,5.53
2018-06-19T21:55:10.638Z,5.17
2018-06-19T21:57:39.607Z,5.50
2018-06-19T22:00:08.510Z,5.30
2018-06-19T22:02:37.371Z,4.83
2018-06-19T22:05:06.256Z,4.70
2018-06-19T22:07:35.189Z,5.10
2018-06-19T22:10:04.143Z,4.67
2018-06-19T22:12:33.070Z,4.70
2018-06-19T22:15:01.978Z,5.17
2018-06-19T22:17:30.929Z,5.70
2018-06-19T22:19:59.850Z,5.87
2018-06-19T22:22:29.488Z,5.07
2018-06-19T22:24:58.400Z,5.73
2018-06-19T22:27:27.280Z,5.50
2018-06-19T22:29:56.171Z,6.67
2018-06-19T22:32:25.061Z,5.10
2018-06-19T22:34:53.968Z,5.20
2018-06-19T22:37:23.054Z,5.00
2018-06-19T22:39:52.084Z,5.93
2018-06-19T22:42:20.956Z,5.53
2018-06-19T22:44:49.873Z,5.90
2018-06-19T22:47:18.877Z,6.77
2018-06-19T22:49:47.813Z,5.77
2018-06-19T22:52:16.648Z,5.87
2018-06-19T22:54:45.535Z,6.30
2018-06-19T22:57:14.481Z,5.97
2018-06-19T22:59:43.413Z,6.40
2018-06-19T23:02:12.315Z,5.33
2018-06-19T23:04:41.213Z,5.63
2018-06-19T23:07:10.070Z,6.83
2018-06-19T23:09:38.998Z,6.83
2018-06-19T23:12:07.928Z,6.53
2018-06-19T23:14:36.881Z,6.83
2018-06-19T23:17:05.846Z,6.27
2018-06-19T23:19:34.990Z,6.90
2018-06-19T23:22:03.873Z,6.43
2018-06-19T23:24:32.853Z,6.87
2018-06-19T23:27:01.826Z,6.47
2018-06-19T23:29:30.704Z,6.37
2018-06-19T23:31:59.650Z,6.97
2018-06-19T23:34:28.512Z,6.17
2018-06-19T23:36:57.395Z,6.60
2018-06-19T23:39:26.282Z,7.17
2018-06-19T23:41:55.183Z,7.37
2018-06-19T23:44:24.156Z,6.90
2018-06-19T23:46:53.112Z,6.50
2018-06-19T23:49:22.014Z,6.70
2018-06-19T23:51:50.985Z,6.03
2018-06-19T23:54:19.912Z,6.60
2018-06-19T23:56:48.798Z,6.50
2018-06-19T23:59:17.668Z,6.30
